Charter Quote
Worldwide +1-877-727-2538 Call
Select Language Lang
SAFETY RELIABILITY EXPERIENCE

Private Jet Charter Services - Nanyang Airport (ZHNY)

Paramount Business Jets offers private jet charter flights and luxury airliner charters to and from Nanyang Airport.

AIRPORT INFORMATION
ICAOZHNY
IATANNY
LOCATIONNanyang, China
FACILITY TYPEAIRPORT

At Paramount Business Jets you can hire chartered private jets to and from Nanyang Airport with as little as 4 hours of notice. All flights booked via Paramount Business Jets are operated by certified direct air carriers that meet and exceed the FAA part 135 and 121 protocol or a foreign equivalent safety authority. Furthermore, Paramount Business Jets subscribes to ARGUS for their third party safety checks of operators, aircraft, and crews prior each and every flight to and from Nanyang Airport and worldwide.

  • Quote a trip using Nanyang Airport or call us 24/7 - 365 days a year at +1-877-727-2538.
Questions? Call +1-877-727-2538

METAR Weather Data at Nanyang Airport, ZHNY, NNY

STATIONZHNY
OBSERVEDWed May 10, 02:00 UTC
NOWMon Jul 22, 10:27 UTC
AGE19280:27 hr ago
WINDSW at 7 mph
VISIBILITYgreater than 7 miles
CLOUDSclear skies
TEMP77°F (25°C)
DEWPT66°F (19°C)
HUMIDITY69%
BAROMETER1012 hPa (29.88 in Hg)
METARZHNY 100200Z 22003MPS 170V270 CAVOK 25/19 Q1012

Call us on +1-877-727-2538 (24 Hours) to Hire a Private Jet or Get a Quick Quote.

Find Airports Near any Location

Processing
...